sensor_id;sensor_type;location;lat;lon;timestamp;P1;durP1;ratioP1;P2;durP2;ratioP2
9906;SDS011;4992;51.628;6.664;2023-05-07T00:00:47;11.05;;;9.88;;
9906;SDS011;4992;51.628;6.664;2023-05-07T00:03:13;10.95;;;10.00;;
9906;SDS011;4992;51.628;6.664;2023-05-07T00:05:39;13.10;;;10.38;;
9906;SDS011;4992;51.628;6.664;2023-05-07T00:08:06;11.23;;;10.23;;
9906;SDS011;4992;51.628;6.664;2023-05-07T00:10:32;11.32;;;10.23;;
9906;SDS011;4992;51.628;6.664;2023-05-07T00:12:58;10.88;;;9.90;;
9906;SDS011;4992;51.628;6.664;2023-05-07T00:15:24;11.13;;;9.70;;
9906;SDS011;4992;51.628;6.664;2023-05-07T00:17:50;10.13;;;9.23;;
9906;SDS011;4992;51.628;6.664;2023-05-07T00:20:16;10.40;;;9.50;;
9906;SDS011;4992;51.628;6.664;2023-05-07T00:22:42;11.05;;;9.93;;
9906;SDS011;4992;51.628;6.664;2023-05-07T00:25:08;10.90;;;9.82;;
9906;SDS011;4992;51.628;6.664;2023-05-07T00:27:35;11.05;;;9.95;;
9906;SDS011;4992;51.628;6.664;2023-05-07T00:30:01;10.98;;;10.02;;
9906;SDS011;4992;51.628;6.664;2023-05-07T00:32:27;12.05;;;10.85;;
9906;SDS011;4992;51.628;6.664;2023-05-07T00:34:52;11.82;;;10.70;;
9906;SDS011;4992;51.628;6.664;2023-05-07T00:37:18;10.93;;;9.90;;
9906;SDS011;4992;51.628;6.664;2023-05-07T00:39:44;10.50;;;9.60;;
9906;SDS011;4992;51.628;6.664;2023-05-07T00:42:10;11.70;;;10.45;;
9906;SDS011;4992;51.628;6.664;2023-05-07T00:44:36;11.52;;;10.40;;
9906;SDS011;4992;51.628;6.664;2023-05-07T00:47:03;11.43;;;10.32;;
9906;SDS011;4992;51.628;6.664;2023-05-07T00:49:35;11.80;;;10.38;;
9906;SDS011;4992;51.628;6.664;2023-05-07T00:52:03;10.65;;;9.75;;
9906;SDS011;4992;51.628;6.664;2023-05-07T00:54:29;11.13;;;10.00;;
9906;SDS011;4992;51.628;6.664;2023-05-07T00:56:55;11.18;;;10.25;;
9906;SDS011;4992;51.628;6.664;2023-05-07T00:59:21;10.85;;;9.95;;
9906;SDS011;4992;51.628;6.664;2023-05-07T01:01:47;11.35;;;10.38;;
9906;SDS011;4992;51.628;6.664;2023-05-07T01:04:13;11.70;;;10.43;;
9906;SDS011;4992;51.628;6.664;2023-05-07T01:06:39;11.27;;;10.27;;
9906;SDS011;4992;51.628;6.664;2023-05-07T01:09:06;11.55;;;10.55;;
9906;SDS011;4992;51.628;6.664;2023-05-07T01:11:32;11.10;;;9.98;;
9906;SDS011;4992;51.628;6.664;2023-05-07T01:13:58;11.52;;;10.27;;
9906;SDS011;4992;51.628;6.664;2023-05-07T01:16:24;11.40;;;10.38;;
9906;SDS011;4992;51.628;6.664;2023-05-07T01:18:51;11.23;;;10.38;;
9906;SDS011;4992;51.628;6.664;2023-05-07T01:21:17;12.10;;;11.02;;
9906;SDS011;4992;51.628;6.664;2023-05-07T01:23:44;11.20;;;10.15;;
9906;SDS011;4992;51.628;6.664;2023-05-07T01:26:10;12.23;;;11.13;;
9906;SDS011;4992;51.628;6.664;2023-05-07T01:28:36;11.57;;;10.55;;
9906;SDS011;4992;51.628;6.664;2023-05-07T01:31:03;11.82;;;10.82;;
9906;SDS011;4992;51.628;6.664;2023-05-07T01:33:31;12.35;;;11.35;;
9906;SDS011;4992;51.628;6.664;2023-05-07T01:35:57;12.77;;;11.48;;
9906;SDS011;4992;51.628;6.664;2023-05-07T01:38:29;13.13;;;11.82;;
9906;SDS011;4992;51.628;6.664;2023-05-07T01:40:55;12.65;;;11.48;;
9906;SDS011;4992;51.628;6.664;2023-05-07T01:43:21;12.57;;;11.35;;
9906;SDS011;4992;51.628;6.664;2023-05-07T01:45:47;12.82;;;11.73;;
9906;SDS011;4992;51.628;6.664;2023-05-07T01:48:14;12.73;;;11.52;;
9906;SDS011;4992;51.628;6.664;2023-05-07T01:50:41;13.00;;;11.80;;
9906;SDS011;4992;51.628;6.664;2023-05-07T01:53:07;13.00;;;11.88;;
9906;SDS011;4992;51.628;6.664;2023-05-07T01:55:33;13.43;;;12.23;;
9906;SDS011;4992;51.628;6.664;2023-05-07T01:57:59;13.70;;;12.30;;
9906;SDS011;4992;51.628;6.664;2023-05-07T02:00:25;13.55;;;12.25;;
9906;SDS011;4992;51.628;6.664;2023-05-07T02:02:51;13.05;;;11.88;;
9906;SDS011;4992;51.628;6.664;2023-05-07T02:05:17;14.38;;;13.10;;
9906;SDS011;4992;51.628;6.664;2023-05-07T02:07:43;13.80;;;12.45;;
9906;SDS011;4992;51.628;6.664;2023-05-07T02:10:09;14.05;;;12.80;;
9906;SDS011;4992;51.628;6.664;2023-05-07T02:12:35;14.27;;;12.88;;
9906;SDS011;4992;51.628;6.664;2023-05-07T02:15:01;14.02;;;12.77;;
9906;SDS011;4992;51.628;6.664;2023-05-07T02:17:27;13.93;;;12.70;;
9906;SDS011;4992;51.628;6.664;2023-05-07T02:19:56;14.68;;;13.15;;
9906;SDS011;4992;51.628;6.664;2023-05-07T02:22:22;14.60;;;13.38;;
9906;SDS011;4992;51.628;6.664;2023-05-07T02:24:48;15.05;;;13.60;;
9906;SDS011;4992;51.628;6.664;2023-05-07T02:27:14;15.40;;;14.02;;
9906;SDS011;4992;51.628;6.664;2023-05-07T02:29:40;14.98;;;13.52;;
9906;SDS011;4992;51.628;6.664;2023-05-07T02:32:06;16.05;;;14.60;;
9906;SDS011;4992;51.628;6.664;2023-05-07T02:34:32;15.68;;;14.18;;
9906;SDS011;4992;51.628;6.664;2023-05-07T02:36:58;15.15;;;13.73;;
9906;SDS011;4992;51.628;6.664;2023-05-07T02:39:24;16.30;;;14.93;;
9906;SDS011;4992;51.628;6.664;2023-05-07T02:41:50;15.18;;;13.73;;
9906;SDS011;4992;51.628;6.664;2023-05-07T02:44:16;14.25;;;12.95;;
9906;SDS011;4992;51.628;6.664;2023-05-07T02:46:42;15.15;;;13.75;;
9906;SDS011;4992;51.628;6.664;2023-05-07T02:49:08;14.45;;;13.13;;
9906;SDS011;4992;51.628;6.664;2023-05-07T02:51:34;16.13;;;14.50;;
9906;SDS011;4992;51.628;6.664;2023-05-07T02:54:00;16.63;;;15.13;;
9906;SDS011;4992;51.628;6.664;2023-05-07T02:56:26;16.38;;;14.98;;
9906;SDS011;4992;51.628;6.664;2023-05-07T02:58:52;15.65;;;14.35;;
9906;SDS011;4992;51.628;6.664;2023-05-07T03:01:18;16.02;;;14.63;;
9906;SDS011;4992;51.628;6.664;2023-05-07T03:03:44;16.92;;;15.32;;
9906;SDS011;4992;51.628;6.664;2023-05-07T03:06:10;16.92;;;15.25;;
9906;SDS011;4992;51.628;6.664;2023-05-07T03:08:36;16.67;;;15.27;;
9906;SDS011;4992;51.628;6.664;2023-05-07T03:11:02;16.45;;;14.88;;
9906;SDS011;4992;51.628;6.664;2023-05-07T03:13:28;17.42;;;15.85;;
9906;SDS011;4992;51.628;6.664;2023-05-07T03:15:54;16.65;;;15.25;;
9906;SDS011;4992;51.628;6.664;2023-05-07T03:18:20;16.90;;;15.38;;
9906;SDS011;4992;51.628;6.664;2023-05-07T03:20:46;16.58;;;14.98;;
9906;SDS011;4992;51.628;6.664;2023-05-07T03:23:12;16.58;;;15.07;;
9906;SDS011;4992;51.628;6.664;2023-05-07T03:25:37;17.67;;;15.98;;
9906;SDS011;4992;51.628;6.664;2023-05-07T03:28:03;17.08;;;15.48;;
9906;SDS011;4992;51.628;6.664;2023-05-07T03:30:30;16.88;;;15.27;;
9906;SDS011;4992;51.628;6.664;2023-05-07T03:32:56;16.58;;;15.15;;
9906;SDS011;4992;51.628;6.664;2023-05-07T03:35:22;17.83;;;16.17;;
9906;SDS011;4992;51.628;6.664;2023-05-07T03:37:48;16.52;;;15.23;;
9906;SDS011;4992;51.628;6.664;2023-05-07T03:40:14;17.58;;;15.88;;
9906;SDS011;4992;51.628;6.664;2023-05-07T03:42:40;17.80;;;16.08;;
9906;SDS011;4992;51.628;6.664;2023-05-07T03:45:06;18.30;;;16.67;;
9906;SDS011;4992;51.628;6.664;2023-05-07T03:47:32;18.50;;;16.80;;
9906;SDS011;4992;51.628;6.664;2023-05-07T03:49:58;18.88;;;17.20;;
9906;SDS011;4992;51.628;6.664;2023-05-07T03:52:24;18.20;;;16.50;;
9906;SDS011;4992;51.628;6.664;2023-05-07T03:54:52;18.67;;;16.95;;
9906;SDS011;4992;51.628;6.664;2023-05-07T03:57:18;18.13;;;16.42;;
9906;SDS011;4992;51.628;6.664;2023-05-07T03:59:44;18.05;;;16.35;;
9906;SDS011;4992;51.628;6.664;2023-05-07T04:02:10;18.67;;;17.08;;
9906;SDS011;4992;51.628;6.664;2023-05-07T04:04:36;18.30;;;16.60;;
9906;SDS011;4992;51.628;6.664;2023-05-07T04:07:02;19.10;;;17.15;;
9906;SDS011;4992;51.628;6.664;2023-05-07T04:09:28;20.70;;;18.60;;
9906;SDS011;4992;51.628;6.664;2023-05-07T04:11:54;18.38;;;16.48;;
9906;SDS011;4992;51.628;6.664;2023-05-07T04:14:20;20.35;;;18.33;;
9906;SDS011;4992;51.628;6.664;2023-05-07T04:16:46;19.75;;;17.95;;
9906;SDS011;4992;51.628;6.664;2023-05-07T04:19:12;20.88;;;18.88;;
9906;SDS011;4992;51.628;6.664;2023-05-07T04:21:38;20.88;;;18.92;;
9906;SDS011;4992;51.628;6.664;2023-05-07T04:24:04;20.05;;;17.95;;
9906;SDS011;4992;51.628;6.664;2023-05-07T04:26:30;20.40;;;18.58;;
9906;SDS011;4992;51.628;6.664;2023-05-07T04:28:56;20.63;;;18.77;;
9906;SDS011;4992;51.628;6.664;2023-05-07T04:31:24;19.15;;;17.35;;
9906;SDS011;4992;51.628;6.664;2023-05-07T04:33:50;19.50;;;17.50;;
9906;SDS011;4992;51.628;6.664;2023-05-07T04:36:16;21.55;;;19.35;;
9906;SDS011;4992;51.628;6.664;2023-05-07T04:38:42;20.52;;;18.30;;
9906;SDS011;4992;51.628;6.664;2023-05-07T04:41:08;19.48;;;17.55;;
9906;SDS011;4992;51.628;6.664;2023-05-07T04:43:35;19.80;;;17.90;;
9906;SDS011;4992;51.628;6.664;2023-05-07T04:46:01;19.38;;;17.55;;
9906;SDS011;4992;51.628;6.664;2023-05-07T04:48:26;19.25;;;17.42;;
9906;SDS011;4992;51.628;6.664;2023-05-07T04:50:53;19.50;;;17.55;;
9906;SDS011;4992;51.628;6.664;2023-05-07T04:53:20;19.27;;;17.05;;
9906;SDS011;4992;51.628;6.664;2023-05-07T04:55:46;19.20;;;17.27;;
9906;SDS011;4992;51.628;6.664;2023-05-07T04:58:12;19.50;;;17.60;;
9906;SDS011;4992;51.628;6.664;2023-05-07T05:00:38;19.38;;;17.50;;
9906;SDS011;4992;51.628;6.664;2023-05-07T05:03:05;21.05;;;18.88;;
9906;SDS011;4992;51.628;6.664;2023-05-07T05:05:31;19.45;;;17.55;;
9906;SDS011;4992;51.628;6.664;2023-05-07T05:07:57;20.10;;;18.10;;
9906;SDS011;4992;51.628;6.664;2023-05-07T05:10:23;20.35;;;18.50;;
9906;SDS011;4992;51.628;6.664;2023-05-07T05:12:50;19.75;;;17.95;;
9906;SDS011;4992;51.628;6.664;2023-05-07T05:15:16;20.10;;;18.13;;
9906;SDS011;4992;51.628;6.664;2023-05-07T05:17:42;19.77;;;17.88;;
9906;SDS011;4992;51.628;6.664;2023-05-07T05:20:08;18.98;;;17.27;;
9906;SDS011;4992;51.628;6.664;2023-05-07T05:22:35;19.23;;;16.60;;
9906;SDS011;4992;51.628;6.664;2023-05-07T05:25:01;17.92;;;16.33;;
9906;SDS011;4992;51.628;6.664;2023-05-07T05:27:28;18.17;;;16.67;;
9906;SDS011;4992;51.628;6.664;2023-05-07T05:29:54;19.92;;;18.10;;
9906;SDS011;4992;51.628;6.664;2023-05-07T05:32:20;20.88;;;18.98;;
9906;SDS011;4992;51.628;6.664;2023-05-07T05:34:46;20.70;;;18.60;;
9906;SDS011;4992;51.628;6.664;2023-05-07T05:37:12;22.05;;;19.75;;
9906;SDS011;4992;51.628;6.664;2023-05-07T05:39:38;26.00;;;21.88;;
9906;SDS011;4992;51.628;6.664;2023-05-07T05:42:04;23.35;;;18.77;;
9906;SDS011;4992;51.628;6.664;2023-05-07T05:44:30;17.25;;;15.52;;
9906;SDS011;4992;51.628;6.664;2023-05-07T05:46:56;14.15;;;12.75;;
9906;SDS011;4992;51.628;6.664;2023-05-07T05:49:24;13.20;;;12.00;;
9906;SDS011;4992;51.628;6.664;2023-05-07T05:51:50;12.82;;;11.52;;
9906;SDS011;4992;51.628;6.664;2023-05-07T05:54:16;11.90;;;10.85;;
9906;SDS011;4992;51.628;6.664;2023-05-07T05:56:42;11.95;;;10.95;;
9906;SDS011;4992;51.628;6.664;2023-05-07T05:59:08;11.88;;;10.88;;
9906;SDS011;4992;51.628;6.664;2023-05-07T06:01:33;10.73;;;9.77;;
9906;SDS011;4992;51.628;6.664;2023-05-07T06:03:59;11.70;;;10.70;;
9906;SDS011;4992;51.628;6.664;2023-05-07T06:06:25;10.93;;;9.70;;
9906;SDS011;4992;51.628;6.664;2023-05-07T06:08:52;10.73;;;9.80;;
9906;SDS011;4992;51.628;6.664;2023-05-07T06:11:18;10.32;;;9.43;;
9906;SDS011;4992;51.628;6.664;2023-05-07T06:13:44;10.68;;;9.68;;
9906;SDS011;4992;51.628;6.664;2023-05-07T06:16:10;10.70;;;9.80;;
9906;SDS011;4992;51.628;6.664;2023-05-07T06:18:36;11.10;;;10.00;;
9906;SDS011;4992;51.628;6.664;2023-05-07T06:21:02;11.10;;;10.10;;
9906;SDS011;4992;51.628;6.664;2023-05-07T06:23:28;10.57;;;9.68;;
9906;SDS011;4992;51.628;6.664;2023-05-07T06:25:55;10.50;;;9.50;;
9906;SDS011;4992;51.628;6.664;2023-05-07T06:28:20;10.75;;;9.73;;
9906;SDS011;4992;51.628;6.664;2023-05-07T06:30:46;10.23;;;9.32;;
9906;SDS011;4992;51.628;6.664;2023-05-07T06:33:14;10.32;;;9.25;;
9906;SDS011;4992;51.628;6.664;2023-05-07T06:35:40;9.65;;;8.75;;
9906;SDS011;4992;51.628;6.664;2023-05-07T06:38:06;9.88;;;9.07;;
9906;SDS011;4992;51.628;6.664;2023-05-07T06:40:32;9.75;;;8.82;;
9906;SDS011;4992;51.628;6.664;2023-05-07T06:42:58;10.95;;;9.95;;
9906;SDS011;4992;51.628;6.664;2023-05-07T06:45:24;9.40;;;8.60;;
9906;SDS011;4992;51.628;6.664;2023-05-07T06:47:50;9.32;;;8.45;;
9906;SDS011;4992;51.628;6.664;2023-05-07T06:50:16;8.73;;;7.93;;
9906;SDS011;4992;51.628;6.664;2023-05-07T06:52:42;7.85;;;7.15;;
9906;SDS011;4992;51.628;6.664;2023-05-07T06:55:08;7.65;;;6.95;;
9906;SDS011;4992;51.628;6.664;2023-05-07T06:57:34;7.40;;;6.60;;
9906;SDS011;4992;51.628;6.664;2023-05-07T07:00:00;7.25;;;6.65;;
9906;SDS011;4992;51.628;6.664;2023-05-07T07:02:26;10.02;;;7.82;;
9906;SDS011;4992;51.628;6.664;2023-05-07T07:04:52;9.90;;;8.90;;
9906;SDS011;4992;51.628;6.664;2023-05-07T07:07:18;9.98;;;9.07;;
9906;SDS011;4992;51.628;6.664;2023-05-07T07:09:44;10.75;;;9.75;;
9906;SDS011;4992;51.628;6.664;2023-05-07T07:12:09;10.13;;;9.32;;
9906;SDS011;4992;51.628;6.664;2023-05-07T07:14:35;8.63;;;7.90;;
9906;SDS011;4992;51.628;6.664;2023-05-07T07:17:01;8.77;;;7.50;;
9906;SDS011;4992;51.628;6.664;2023-05-07T07:19:27;7.40;;;6.90;;
9906;SDS011;4992;51.628;6.664;2023-05-07T07:21:53;7.78;;;7.07;;
9906;SDS011;4992;51.628;6.664;2023-05-07T07:24:19;7.43;;;6.72;;
9906;SDS011;4992;51.628;6.664;2023-05-07T07:26:46;6.68;;;6.03;;
9906;SDS011;4992;51.628;6.664;2023-05-07T07:29:12;8.00;;;6.25;;
9906;SDS011;4992;51.628;6.664;2023-05-07T07:31:38;6.00;;;5.45;;
9906;SDS011;4992;51.628;6.664;2023-05-07T07:34:04;7.68;;;5.95;;
9906;SDS011;4992;51.628;6.664;2023-05-07T07:36:30;7.03;;;5.70;;
9906;SDS011;4992;51.628;6.664;2023-05-07T07:38:56;6.00;;;5.50;;
9906;SDS011;4992;51.628;6.664;2023-05-07T07:41:22;6.13;;;5.43;;
9906;SDS011;4992;51.628;6.664;2023-05-07T07:43:48;5.68;;;5.13;;
9906;SDS011;4992;51.628;6.664;2023-05-07T07:46:14;5.57;;;5.10;;
9906;SDS011;4992;51.628;6.664;2023-05-07T07:48:40;5.45;;;5.05;;
9906;SDS011;4992;51.628;6.664;2023-05-07T07:51:06;5.35;;;4.93;;
9906;SDS011;4992;51.628;6.664;2023-05-07T07:53:32;4.82;;;4.35;;
9906;SDS011;4992;51.628;6.664;2023-05-07T07:55:58;5.68;;;4.90;;
9906;SDS011;4992;51.628;6.664;2023-05-07T07:58:24;4.55;;;4.15;;
9906;SDS011;4992;51.628;6.664;2023-05-07T08:00:50;4.38;;;3.97;;
9906;SDS011;4992;51.628;6.664;2023-05-07T08:03:16;4.50;;;3.63;;
9906;SDS011;4992;51.628;6.664;2023-05-07T08:05:42;3.83;;;3.58;;
9906;SDS011;4992;51.628;6.664;2023-05-07T08:08:08;5.93;;;4.10;;
9906;SDS011;4992;51.628;6.664;2023-05-07T08:10:34;4.65;;;3.90;;
9906;SDS011;4992;51.628;6.664;2023-05-07T08:13:03;5.15;;;4.65;;
9906;SDS011;4992;51.628;6.664;2023-05-07T08:15:29;3.85;;;3.55;;
9906;SDS011;4992;51.628;6.664;2023-05-07T08:17:55;5.18;;;4.35;;
9906;SDS011;4992;51.628;6.664;2023-05-07T08:20:22;3.83;;;3.53;;
9906;SDS011;4992;51.628;6.664;2023-05-07T08:22:48;3.90;;;3.60;;
9906;SDS011;4992;51.628;6.664;2023-05-07T08:25:14;4.80;;;3.90;;
9906;SDS011;4992;51.628;6.664;2023-05-07T08:27:40;4.60;;;4.20;;
9906;SDS011;4992;51.628;6.664;2023-05-07T08:30:06;4.00;;;3.30;;
9906;SDS011;4992;51.628;6.664;2023-05-07T08:32:32;4.38;;;3.30;;
9906;SDS011;4992;51.628;6.664;2023-05-07T08:34:58;4.25;;;3.83;;
9906;SDS011;4992;51.628;6.664;2023-05-07T08:37:24;4.15;;;3.53;;
9906;SDS011;4992;51.628;6.664;2023-05-07T08:39:50;4.10;;;3.67;;
9906;SDS011;4992;51.628;6.664;2023-05-07T08:42:16;3.97;;;3.67;;
9906;SDS011;4992;51.628;6.664;2023-05-07T08:44:43;3.35;;;2.78;;
9906;SDS011;4992;51.628;6.664;2023-05-07T08:47:12;2.95;;;2.67;;
9906;SDS011;4992;51.628;6.664;2023-05-07T08:49:38;2.70;;;2.40;;
9906;SDS011;4992;51.628;6.664;2023-05-07T08:52:04;3.78;;;2.88;;
9906;SDS011;4992;51.628;6.664;2023-05-07T08:54:30;3.05;;;2.53;;
9906;SDS011;4992;51.628;6.664;2023-05-07T08:56:56;3.53;;;2.97;;
9906;SDS011;4992;51.628;6.664;2023-05-07T08:59:22;4.50;;;3.53;;
9906;SDS011;4992;51.628;6.664;2023-05-07T09:01:48;3.58;;;3.28;;
9906;SDS011;4992;51.628;6.664;2023-05-07T09:04:14;3.05;;;2.50;;
9906;SDS011;4992;51.628;6.664;2023-05-07T09:06:40;2.92;;;2.10;;
9906;SDS011;4992;51.628;6.664;2023-05-07T09:09:07;2.47;;;2.38;;
9906;SDS011;4992;51.628;6.664;2023-05-07T09:11:33;3.75;;;2.90;;
9906;SDS011;4992;51.628;6.664;2023-05-07T09:13:59;3.22;;;2.92;;
9906;SDS011;4992;51.628;6.664;2023-05-07T09:16:28;2.58;;;2.33;;
9906;SDS011;4992;51.628;6.664;2023-05-07T09:18:57;4.88;;;3.13;;
9906;SDS011;4992;51.628;6.664;2023-05-07T09:21:23;3.00;;;2.70;;
9906;SDS011;4992;51.628;6.664;2023-05-07T09:23:52;2.45;;;2.25;;
9906;SDS011;4992;51.628;6.664;2023-05-07T09:26:20;2.00;;;1.75;;
9906;SDS011;4992;51.628;6.664;2023-05-07T09:28:47;3.35;;;2.53;;
9906;SDS011;4992;51.628;6.664;2023-05-07T09:31:12;3.90;;;3.00;;
9906;SDS011;4992;51.628;6.664;2023-05-07T09:33:39;3.13;;;2.72;;
9906;SDS011;4992;51.628;6.664;2023-05-07T09:36:06;3.67;;;2.97;;
9906;SDS011;4992;51.628;6.664;2023-05-07T09:38:32;3.00;;;2.80;;
9906;SDS011;4992;51.628;6.664;2023-05-07T09:41:05;3.35;;;3.05;;
9906;SDS011;4992;51.628;6.664;2023-05-07T09:43:32;3.67;;;2.17;;
9906;SDS011;4992;51.628;6.664;2023-05-07T09:46:08;3.22;;;2.78;;
9906;SDS011;4992;51.628;6.664;2023-05-07T09:48:35;2.22;;;2.00;;
9906;SDS011;4992;51.628;6.664;2023-05-07T09:51:02;2.83;;;2.38;;
9906;SDS011;4992;51.628;6.664;2023-05-07T09:53:32;3.55;;;2.05;;
9906;SDS011;4992;51.628;6.664;2023-05-07T09:55:59;2.85;;;1.83;;
9906;SDS011;4992;51.628;6.664;2023-05-07T09:58:25;1.40;;;1.30;;
9906;SDS011;4992;51.628;6.664;2023-05-07T10:00:52;0.82;;;0.82;;
9906;SDS011;4992;51.628;6.664;2023-05-07T10:03:18;1.40;;;1.20;;
9906;SDS011;4992;51.628;6.664;2023-05-07T10:05:45;1.48;;;1.10;;
9906;SDS011;4992;51.628;6.664;2023-05-07T10:08:12;2.15;;;1.17;;
9906;SDS011;4992;51.628;6.664;2023-05-07T10:10:38;2.30;;;1.52;;
9906;SDS011;4992;51.628;6.664;2023-05-07T10:13:05;1.45;;;1.33;;
9906;SDS011;4992;51.628;6.664;2023-05-07T10:15:35;2.45;;;1.95;;
9906;SDS011;4992;51.628;6.664;2023-05-07T10:18:02;2.55;;;1.52;;
9906;SDS011;4992;51.628;6.664;2023-05-07T10:20:29;3.90;;;1.88;;
9906;SDS011;4992;51.628;6.664;2023-05-07T10:22:55;3.15;;;1.98;;
9906;SDS011;4992;51.628;6.664;2023-05-07T10:25:31;1.85;;;1.13;;
9906;SDS011;4992;51.628;6.664;2023-05-07T10:27:59;2.65;;;1.83;;
9906;SDS011;4992;51.628;6.664;2023-05-07T10:32:53;1.77;;;1.48;;
9906;SDS011;4992;51.628;6.664;2023-05-07T10:35:21;3.60;;;1.67;;
9906;SDS011;4992;51.628;6.664;2023-05-07T10:37:48;2.30;;;2.10;;
9906;SDS011;4992;51.628;6.664;2023-05-07T10:40:14;1.83;;;1.65;;
9906;SDS011;4992;51.628;6.664;2023-05-07T10:42:55;3.33;;;2.10;;
9906;SDS011;4992;51.628;6.664;2023-05-07T10:45:22;5.20;;;1.83;;
9906;SDS011;4992;51.628;6.664;2023-05-07T10:50:46;2.63;;;1.75;;
9906;SDS011;4992;51.628;6.664;2023-05-07T10:55:44;1.75;;;0.90;;
9906;SDS011;4992;51.628;6.664;2023-05-07T10:58:23;1.80;;;1.08;;
9906;SDS011;4992;51.628;6.664;2023-05-07T11:00:56;1.52;;;1.40;;
9906;SDS011;4992;51.628;6.664;2023-05-07T11:03:22;2.38;;;1.20;;
9906;SDS011;4992;51.628;6.664;2023-05-07T11:05:48;3.17;;;1.05;;
9906;SDS011;4992;51.628;6.664;2023-05-07T11:11:18;2.08;;;1.35;;
9906;SDS011;4992;51.628;6.664;2023-05-07T11:13:47;2.42;;;1.45;;
9906;SDS011;4992;51.628;6.664;2023-05-07T11:16:17;1.50;;;1.05;;
9906;SDS011;4992;51.628;6.664;2023-05-07T11:18:47;1.63;;;1.10;;
9906;SDS011;4992;51.628;6.664;2023-05-07T11:21:31;2.35;;;0.95;;
9906;SDS011;4992;51.628;6.664;2023-05-07T11:23:58;1.67;;;1.08;;
9906;SDS011;4992;51.628;6.664;2023-05-07T11:26:24;2.00;;;1.10;;
9906;SDS011;4992;51.628;6.664;2023-05-07T11:28:51;3.60;;;1.75;;
9906;SDS011;4992;51.628;6.664;2023-05-07T11:31:20;1.67;;;1.58;;
9906;SDS011;4992;51.628;6.664;2023-05-07T11:33:47;3.60;;;2.20;;
9906;SDS011;4992;51.628;6.664;2023-05-07T11:36:13;3.30;;;2.10;;
9906;SDS011;4992;51.628;6.664;2023-05-07T11:38:39;3.35;;;1.67;;
9906;SDS011;4992;51.628;6.664;2023-05-07T11:41:05;2.15;;;1.00;;
9906;SDS011;4992;51.628;6.664;2023-05-07T11:43:31;1.85;;;1.20;;
9906;SDS011;4992;51.628;6.664;2023-05-07T11:48:33;3.78;;;1.60;;
9906;SDS011;4992;51.628;6.664;2023-05-07T11:53:25;2.72;;;1.73;;
9906;SDS011;4992;51.628;6.664;2023-05-07T11:55:52;5.00;;;1.98;;
9906;SDS011;4992;51.628;6.664;2023-05-07T11:58:22;1.77;;;1.50;;
9906;SDS011;4992;51.628;6.664;2023-05-07T12:00:48;3.55;;;2.33;;
9906;SDS011;4992;51.628;6.664;2023-05-07T12:03:15;2.83;;;1.90;;
9906;SDS011;4992;51.628;6.664;2023-05-07T12:05:41;3.83;;;2.20;;
9906;SDS011;4992;51.628;6.664;2023-05-07T12:08:07;2.00;;;1.80;;
9906;SDS011;4992;51.628;6.664;2023-05-07T12:10:33;2.53;;;2.10;;
9906;SDS011;4992;51.628;6.664;2023-05-07T12:12:59;3.10;;;2.30;;
9906;SDS011;4992;51.628;6.664;2023-05-07T12:15:25;2.60;;;2.03;;
9906;SDS011;4992;51.628;6.664;2023-05-07T12:17:51;2.13;;;1.80;;
9906;SDS011;4992;51.628;6.664;2023-05-07T12:20:17;2.50;;;1.90;;
9906;SDS011;4992;51.628;6.664;2023-05-07T12:22:43;3.75;;;2.30;;
9906;SDS011;4992;51.628;6.664;2023-05-07T12:25:09;2.50;;;1.75;;
9906;SDS011;4992;51.628;6.664;2023-05-07T12:27:38;2.40;;;2.20;;
9906;SDS011;4992;51.628;6.664;2023-05-07T12:30:05;4.00;;;1.80;;
9906;SDS011;4992;51.628;6.664;2023-05-07T12:32:31;2.55;;;2.35;;
9906;SDS011;4992;51.628;6.664;2023-05-07T12:35:01;4.15;;;2.40;;
9906;SDS011;4992;51.628;6.664;2023-05-07T12:37:27;2.20;;;2.00;;
9906;SDS011;4992;51.628;6.664;2023-05-07T12:40:06;2.88;;;2.55;;
9906;SDS011;4992;51.628;6.664;2023-05-07T12:42:33;4.10;;;2.10;;
9906;SDS011;4992;51.628;6.664;2023-05-07T12:45:07;2.17;;;1.90;;
9906;SDS011;4992;51.628;6.664;2023-05-07T12:47:33;2.28;;;1.90;;
9906;SDS011;4992;51.628;6.664;2023-05-07T12:49:59;3.08;;;2.17;;
9906;SDS011;4992;51.628;6.664;2023-05-07T12:52:25;4.13;;;2.17;;
9906;SDS011;4992;51.628;6.664;2023-05-07T12:54:51;2.55;;;1.75;;
9906;SDS011;4992;51.628;6.664;2023-05-07T12:57:19;2.95;;;1.92;;
9906;SDS011;4992;51.628;6.664;2023-05-07T12:59:45;3.85;;;2.38;;
9906;SDS011;4992;51.628;6.664;2023-05-07T13:02:11;3.15;;;2.85;;
9906;SDS011;4992;51.628;6.664;2023-05-07T13:04:37;4.55;;;2.72;;
9906;SDS011;4992;51.628;6.664;2023-05-07T13:07:03;3.00;;;2.70;;
9906;SDS011;4992;51.628;6.664;2023-05-07T13:09:30;4.57;;;3.42;;
9906;SDS011;4992;51.628;6.664;2023-05-07T13:11:57;7.18;;;3.15;;
9906;SDS011;4992;51.628;6.664;2023-05-07T13:14:26;3.63;;;3.17;;
9906;SDS011;4992;51.628;6.664;2023-05-07T13:16:52;4.05;;;3.50;;
9906;SDS011;4992;51.628;6.664;2023-05-07T13:19:18;3.17;;;2.78;;
9906;SDS011;4992;51.628;6.664;2023-05-07T13:21:44;4.22;;;2.85;;
9906;SDS011;4992;51.628;6.664;2023-05-07T13:24:10;6.50;;;2.83;;
9906;SDS011;4992;51.628;6.664;2023-05-07T13:26:36;4.20;;;2.80;;
9906;SDS011;4992;51.628;6.664;2023-05-07T13:29:02;4.30;;;2.97;;
9906;SDS011;4992;51.628;6.664;2023-05-07T13:31:27;5.95;;;3.55;;
9906;SDS011;4992;51.628;6.664;2023-05-07T13:33:53;3.28;;;2.88;;
9906;SDS011;4992;51.628;6.664;2023-05-07T13:36:21;4.22;;;3.50;;
9906;SDS011;4992;51.628;6.664;2023-05-07T13:38:47;4.13;;;3.40;;
9906;SDS011;4992;51.628;6.664;2023-05-07T13:41:13;5.47;;;3.53;;
9906;SDS011;4992;51.628;6.664;2023-05-07T13:43:39;4.15;;;3.22;;
9906;SDS011;4992;51.628;6.664;2023-05-07T13:46:05;5.82;;;2.85;;
9906;SDS011;4992;51.628;6.664;2023-05-07T13:48:31;3.17;;;2.90;;
9906;SDS011;4992;51.628;6.664;2023-05-07T13:50:57;5.90;;;3.55;;
9906;SDS011;4992;51.628;6.664;2023-05-07T13:53:23;3.47;;;2.97;;
9906;SDS011;4992;51.628;6.664;2023-05-07T13:55:49;5.75;;;3.72;;
9906;SDS011;4992;51.628;6.664;2023-05-07T13:58:15;5.00;;;3.80;;
9906;SDS011;4992;51.628;6.664;2023-05-07T14:00:41;5.45;;;3.45;;
9906;SDS011;4992;51.628;6.664;2023-05-07T14:03:07;3.60;;;3.30;;
9906;SDS011;4992;51.628;6.664;2023-05-07T14:05:33;4.90;;;3.17;;
9906;SDS011;4992;51.628;6.664;2023-05-07T14:07:59;5.47;;;4.38;;
9906;SDS011;4992;51.628;6.664;2023-05-07T14:10:25;4.30;;;3.90;;
9906;SDS011;4992;51.628;6.664;2023-05-07T14:12:51;4.88;;;4.47;;
9906;SDS011;4992;51.628;6.664;2023-05-07T14:15:18;5.10;;;4.43;;
9906;SDS011;4992;51.628;6.664;2023-05-07T14:17:44;4.78;;;4.13;;
9906;SDS011;4992;51.628;6.664;2023-05-07T14:20:11;4.93;;;4.50;;
9906;SDS011;4992;51.628;6.664;2023-05-07T14:22:37;5.22;;;4.07;;
9906;SDS011;4992;51.628;6.664;2023-05-07T14:25:03;5.75;;;4.80;;
9906;SDS011;4992;51.628;6.664;2023-05-07T14:27:29;5.45;;;4.60;;
9906;SDS011;4992;51.628;6.664;2023-05-07T14:29:55;4.93;;;3.97;;
9906;SDS011;4992;51.628;6.664;2023-05-07T14:32:21;5.32;;;4.82;;
9906;SDS011;4992;51.628;6.664;2023-05-07T14:37:38;5.00;;;4.20;;
9906;SDS011;4992;51.628;6.664;2023-05-07T14:43:07;4.32;;;4.00;;
9906;SDS011;4992;51.628;6.664;2023-05-07T14:45:33;5.93;;;4.10;;
9906;SDS011;4992;51.628;6.664;2023-05-07T14:47:59;5.07;;;4.40;;
9906;SDS011;4992;51.628;6.664;2023-05-07T14:50:25;6.55;;;4.63;;
9906;SDS011;4992;51.628;6.664;2023-05-07T14:52:51;5.38;;;4.88;;
9906;SDS011;4992;51.628;6.664;2023-05-07T14:55:17;7.13;;;4.78;;
9906;SDS011;4992;51.628;6.664;2023-05-07T14:57:43;6.65;;;4.50;;
9906;SDS011;4992;51.628;6.664;2023-05-07T15:00:09;4.70;;;4.30;;
9906;SDS011;4992;51.628;6.664;2023-05-07T15:02:36;4.93;;;4.32;;
9906;SDS011;4992;51.628;6.664;2023-05-07T15:05:02;5.28;;;4.80;;
9906;SDS011;4992;51.628;6.664;2023-05-07T15:07:28;5.70;;;4.82;;
9906;SDS011;4992;51.628;6.664;2023-05-07T15:09:54;5.88;;;4.97;;
9906;SDS011;4992;51.628;6.664;2023-05-07T15:12:21;5.30;;;4.80;;
9906;SDS011;4992;51.628;6.664;2023-05-07T15:14:47;5.65;;;4.97;;
9906;SDS011;4992;51.628;6.664;2023-05-07T15:17:13;6.63;;;4.95;;
9906;SDS011;4992;51.628;6.664;2023-05-07T15:19:39;5.15;;;4.63;;